首页
METAR-TAF:

METAR-TAF

机场 :

General Wayne Downing Peoria International Airport

皮奥里亚, 伊利诺伊州, 美国

纬度: 40-40-03N, 经度: 089-41-02W, 海拔: 201米

当前天气观测

该预报发布于55分钟前的15:54 UTC
风速3节,风向西转西南
温度 26°C
湿度 70%
气压 1019 hPa
能見度: 16.1公里
天空无云

METAR: KPIA 261554Z 25003KT 10SM CLR 26/20 A3008 RMK AO2 SLP180 T02610200

时间: 11:49 (16:49 UTC)

预报

该预报发布于5小时和29分钟前的11:20 UTC
预报有效从26日的 12点(UTC)到 27日的 12点(UTC)
风速5节,风向
能見度: 10公里
多云层高于25000英尺
从 26日的 1500点(UTC)
风速9节,风向南转西南
能見度: 10公里
少量云层高于4000英尺
多云层高于25000英尺
从 26日的 2200点(UTC)
风速12节,风向南转西南
能見度: 10公里
散云层高于4000英尺, 积雨云.
多云层高于7000英尺
附近有雷暴
从 27日的 0200点(UTC)
风速5节,风向南转南东
能見度: 10公里
散云层高于12000英尺
多云层高于25000英尺

TAF: KPIA 261120Z 2612/2712 18005KT P6SM BKN250 FM261500 21009KT P6SM FEW040 BKN250 FM262200 21012KT P6SM VCTS SCT040CB BKN070 FM270200 16005KT P6SM SCT120 BKN250

超过4000个机场的气象观测和天气预报(METAR&TAF报告)。

可查询的气象台以黄色和红色小点在地图上表示。

将鼠标移到小点上方,可查看气象台名称。

然后点击查看天气观测和预报。

如需切换地图:点击带黑十字的绿色按钮放大地图;点击带横线的绿色按钮缩小地图;或者点击绿色箭头查看邻近地区的地图。


METAR-TAF: